sensor_id;sensor_type;location;lat;lon;timestamp;temperature;humidity
36280;DHT22;22317;47.936;12.742;2022-11-15T00:02:14;3.00;52.90
36280;DHT22;22317;47.936;12.742;2022-11-15T00:04:59;3.50;54.10
36280;DHT22;22317;47.936;12.742;2022-11-15T00:07:43;3.30;54.20
36280;DHT22;22317;47.936;12.742;2022-11-15T00:10:27;3.60;54.40
36280;DHT22;22317;47.936;12.742;2022-11-15T00:13:12;3.10;53.80
36280;DHT22;22317;47.936;12.742;2022-11-15T00:15:58;3.30;55.20
36280;DHT22;22317;47.936;12.742;2022-11-15T00:18:43;3.70;54.50
36280;DHT22;22317;47.936;12.742;2022-11-15T00:21:27;3.10;55.60
36280;DHT22;22317;47.936;12.742;2022-11-15T00:24:11;3.20;53.90
36280;DHT22;22317;47.936;12.742;2022-11-15T00:26:55;3.70;54.00
36280;DHT22;22317;47.936;12.742;2022-11-15T00:29:39;3.20;53.70
36280;DHT22;22317;47.936;12.742;2022-11-15T00:51:43;3.20;52.80
36280;DHT22;22317;47.936;12.742;2022-11-15T00:54:28;3.20;53.00
36280;DHT22;22317;47.936;12.742;2022-11-15T01:05:26;3.20;52.90
36280;DHT22;22317;47.936;12.742;2022-11-15T01:35:44;3.10;53.30
36280;DHT22;22317;47.936;12.742;2022-11-15T01:38:28;3.00;53.20
36280;DHT22;22317;47.936;12.742;2022-11-15T01:47:16;2.90;53.30
36280;DHT22;22317;47.936;12.742;2022-11-15T02:03:54;2.80;53.40
36280;DHT22;22317;47.936;12.742;2022-11-15T02:35:58;2.60;53.80
36280;DHT22;22317;47.936;12.742;2022-11-15T02:52:49;2.50;54.00
36280;DHT22;22317;47.936;12.742;2022-11-15T03:13:03;2.30;54.10
36280;DHT22;22317;47.936;12.742;2022-11-15T03:29:55;2.20;54.20
36280;DHT22;22317;47.936;12.742;2022-11-15T04:06:07;2.10;54.80
36280;DHT22;22317;47.936;12.742;2022-11-15T04:37:17;2.00;54.90
36280;DHT22;22317;47.936;12.742;2022-11-15T04:40:01;2.00;54.90
36280;DHT22;22317;47.936;12.742;2022-11-15T04:42:45;2.00;54.90
36280;DHT22;22317;47.936;12.742;2022-11-15T05:48:43;1.40;56.00
36280;DHT22;22317;47.936;12.742;2022-11-15T05:54:15;1.40;55.90
36280;DHT22;22317;47.936;12.742;2022-11-15T05:57:00;1.30;56.10
36280;DHT22;22317;47.936;12.742;2022-11-15T06:07:58;1.40;56.40
36280;DHT22;22317;47.936;12.742;2022-11-15T06:18:57;1.40;56.50
36280;DHT22;22317;47.936;12.742;2022-11-15T06:21:41;1.40;56.60
36280;DHT22;22317;47.936;12.742;2022-11-15T06:40:55;1.50;56.50
36280;DHT22;22317;47.936;12.742;2022-11-15T06:51:53;1.60;56.80
36280;DHT22;22317;47.936;12.742;2022-11-15T07:00:07;1.60;56.70
36280;DHT22;22317;47.936;12.742;2022-11-15T07:44:04;3.50;57.60
36280;DHT22;22317;47.936;12.742;2022-11-15T07:46:49;3.70;57.50
36280;DHT22;22317;47.936;12.742;2022-11-15T08:03:17;4.90;56.90
36280;DHT22;22317;47.936;12.742;2022-11-15T08:08:47;5.30;56.70
36280;DHT22;22317;47.936;12.742;2022-11-15T08:14:17;5.70;56.40
36280;DHT22;22317;47.936;12.742;2022-11-15T08:17:01;5.80;56.20
36280;DHT22;22317;47.936;12.742;2022-11-15T08:19:45;6.00;56.10
36280;DHT22;22317;47.936;12.742;2022-11-15T08:25:15;6.30;55.60
36280;DHT22;22317;47.936;12.742;2022-11-15T08:28:01;6.50;55.50
36280;DHT22;22317;47.936;12.742;2022-11-15T08:33:32;7.00;55.30
36280;DHT22;22317;47.936;12.742;2022-11-15T08:39:03;7.40;54.90
36280;DHT22;22317;47.936;12.742;2022-11-15T08:41:47;7.70;54.50
36280;DHT22;22317;47.936;12.742;2022-11-15T08:44:31;7.80;54.20
36280;DHT22;22317;47.936;12.742;2022-11-15T08:55:28;8.60;53.30
36280;DHT22;22317;47.936;12.742;2022-11-15T09:06:27;9.10;52.00
36280;DHT22;22317;47.936;12.742;2022-11-15T09:17:25;9.70;51.10
36280;DHT22;22317;47.936;12.742;2022-11-15T09:22:54;9.90;50.50
36280;DHT22;22317;47.936;12.742;2022-11-15T09:25:38;10.00;50.20
36280;DHT22;22317;47.936;12.742;2022-11-15T09:36:38;10.80;49.60
36280;DHT22;22317;47.936;12.742;2022-11-15T09:50:51;11.50;48.90
36280;DHT22;22317;47.936;12.742;2022-11-15T09:53:39;11.60;48.20
36280;DHT22;22317;47.936;12.742;2022-11-15T09:56:22;11.80;48.50
36280;DHT22;22317;47.936;12.742;2022-11-15T10:04:38;12.30;47.70
36280;DHT22;22317;47.936;12.742;2022-11-15T10:07:31;12.40;47.50
36280;DHT22;22317;47.936;12.742;2022-11-15T10:10:17;12.50;46.90
36280;DHT22;22317;47.936;12.742;2022-11-15T10:12:48;12.70;46.50
36280;DHT22;22317;47.936;12.742;2022-11-15T10:15:16;12.70;47.00
36280;DHT22;22317;47.936;12.742;2022-11-15T10:20:58;13.20;46.20
36280;DHT22;22317;47.936;12.742;2022-11-15T10:23:24;13.40;45.10
36280;DHT22;22317;47.936;12.742;2022-11-15T10:25:53;13.60;45.80
36280;DHT22;22317;47.936;12.742;2022-11-15T10:30:55;14.00;44.90
36280;DHT22;22317;47.936;12.742;2022-11-15T10:33:35;14.10;44.80
36280;DHT22;22317;47.936;12.742;2022-11-15T10:36:15;14.40;44.20
36280;DHT22;22317;47.936;12.742;2022-11-15T10:41:18;14.70;43.50
36280;DHT22;22317;47.936;12.742;2022-11-15T10:46:21;15.10;42.70
36280;DHT22;22317;47.936;12.742;2022-11-15T10:48:48;15.30;42.60
36280;DHT22;22317;47.936;12.742;2022-11-15T10:51:24;15.50;42.80
36280;DHT22;22317;47.936;12.742;2022-11-15T10:53:58;15.70;41.30
36280;DHT22;22317;47.936;12.742;2022-11-15T10:56:26;15.90;41.90
36280;DHT22;22317;47.936;12.742;2022-11-15T10:58:57;16.10;41.40
36280;DHT22;22317;47.936;12.742;2022-11-15T11:01:25;16.40;40.30
36280;DHT22;22317;47.936;12.742;2022-11-15T11:04:17;15.80;40.40
36280;DHT22;22317;47.936;12.742;2022-11-15T11:06:51;16.60;39.70
36280;DHT22;22317;47.936;12.742;2022-11-15T11:09:36;16.80;39.90
36280;DHT22;22317;47.936;12.742;2022-11-15T11:12:05;17.00;39.30
36280;DHT22;22317;47.936;12.742;2022-11-15T11:14:32;17.50;38.40
36280;DHT22;22317;47.936;12.742;2022-11-15T11:17:27;17.60;38.10
36280;DHT22;22317;47.936;12.742;2022-11-15T11:23:02;17.90;37.70
36280;DHT22;22317;47.936;12.742;2022-11-15T11:25:35;18.10;37.80
36280;DHT22;22317;47.936;12.742;2022-11-15T11:34:29;18.80;35.60
36280;DHT22;22317;47.936;12.742;2022-11-15T11:42:19;19.60;35.00
36280;DHT22;22317;47.936;12.742;2022-11-15T11:47:22;20.10;34.60
36280;DHT22;22317;47.936;12.742;2022-11-15T11:49:54;20.40;34.30
36280;DHT22;22317;47.936;12.742;2022-11-15T11:52:31;20.90;33.80
36280;DHT22;22317;47.936;12.742;2022-11-15T11:55:18;21.30;33.70
36280;DHT22;22317;47.936;12.742;2022-11-15T12:00:34;21.80;32.60
36280;DHT22;22317;47.936;12.742;2022-11-15T12:05:33;22.90;32.00
36280;DHT22;22317;47.936;12.742;2022-11-15T12:11:10;24.10;29.60
36280;DHT22;22317;47.936;12.742;2022-11-15T12:13:38;24.00;28.30
36280;DHT22;22317;47.936;12.742;2022-11-15T12:18:49;22.80;28.20
36280;DHT22;22317;47.936;12.742;2022-11-15T12:23:55;21.80;29.00
36280;DHT22;22317;47.936;12.742;2022-11-15T12:26:28;21.50;29.30
36280;DHT22;22317;47.936;12.742;2022-11-15T12:29:02;21.20;29.60
36280;DHT22;22317;47.936;12.742;2022-11-15T12:31:39;21.40;30.20
36280;DHT22;22317;47.936;12.742;2022-11-15T12:36:48;22.10;30.30
36280;DHT22;22317;47.936;12.742;2022-11-15T12:39:15;23.10;30.50
36280;DHT22;22317;47.936;12.742;2022-11-15T12:59:58;30.20;24.30
36280;DHT22;22317;47.936;12.742;2022-11-15T13:04:55;31.30;23.50
36280;DHT22;22317;47.936;12.742;2022-11-15T13:23:00;34.60;20.80
36280;DHT22;22317;47.936;12.742;2022-11-15T13:30:41;35.60;19.80
36280;DHT22;22317;47.936;12.742;2022-11-15T13:33:22;35.90;19.60
36280;DHT22;22317;47.936;12.742;2022-11-15T13:51:03;38.00;17.90
36280;DHT22;22317;47.936;12.742;2022-11-15T14:00:59;37.80;17.10
36280;DHT22;22317;47.936;12.742;2022-11-15T14:03:27;37.80;17.20
36280;DHT22;22317;47.936;12.742;2022-11-15T14:11:09;37.80;16.70
36280;DHT22;22317;47.936;12.742;2022-11-15T14:16:14;36.90;16.40
36280;DHT22;22317;47.936;12.742;2022-11-15T14:18:59;36.50;16.60
36280;DHT22;22317;47.936;12.742;2022-11-15T14:26:28;35.60;16.70
36280;DHT22;22317;47.936;12.742;2022-11-15T14:31:20;34.30;16.10
36280;DHT22;22317;47.936;12.742;2022-11-15T14:56:06;23.70;20.20
36280;DHT22;22317;47.936;12.742;2022-11-15T15:28:07;16.60;26.20
36280;DHT22;22317;47.936;12.742;2022-11-15T15:35:30;15.40;27.90
36280;DHT22;22317;47.936;12.742;2022-11-15T15:37:57;15.40;28.50
36280;DHT22;22317;47.936;12.742;2022-11-15T15:40:24;15.00;28.80
36280;DHT22;22317;47.936;12.742;2022-11-15T15:42:50;14.50;29.50
36280;DHT22;22317;47.936;12.742;2022-11-15T15:45:17;14.20;29.40
36280;DHT22;22317;47.936;12.742;2022-11-15T15:52:48;13.30;56.30
36280;DHT22;22317;47.936;12.742;2022-11-15T15:55:14;13.00;32.10
36280;DHT22;22317;47.936;12.742;2022-11-15T15:57:40;12.70;33.50
36280;DHT22;22317;47.936;12.742;2022-11-15T16:00:06;12.70;57.20
36280;DHT22;22317;47.936;12.742;2022-11-15T16:12:25;11.00;35.00
36280;DHT22;22317;47.936;12.742;2022-11-15T16:14:51;10.90;35.10
36280;DHT22;22317;47.936;12.742;2022-11-15T16:17:20;10.70;36.60
36280;DHT22;22317;47.936;12.742;2022-11-15T16:19:47;10.50;36.70
36280;DHT22;22317;47.936;12.742;2022-11-15T16:22:12;10.40;37.20
36280;DHT22;22317;47.936;12.742;2022-11-15T16:24:38;10.20;36.80
36280;DHT22;22317;47.936;12.742;2022-11-15T16:27:04;10.00;37.10
36280;DHT22;22317;47.936;12.742;2022-11-15T16:29:30;9.90;37.80
36280;DHT22;22317;47.936;12.742;2022-11-15T16:31:55;9.80;38.30
36280;DHT22;22317;47.936;12.742;2022-11-15T16:34:22;9.50;49.20
36280;DHT22;22317;47.936;12.742;2022-11-15T16:36:47;9.50;38.90
36280;DHT22;22317;47.936;12.742;2022-11-15T16:46:41;8.70;67.70
36280;DHT22;22317;47.936;12.742;2022-11-15T16:49:14;9.30;65.90
36280;DHT22;22317;47.936;12.742;2022-11-15T16:51:41;8.80;64.30
36280;DHT22;22317;47.936;12.742;2022-11-15T16:56:35;8.30;40.50
36280;DHT22;22317;47.936;12.742;2022-11-15T16:59:01;8.10;40.80
36280;DHT22;22317;47.936;12.742;2022-11-15T17:01:32;7.60;43.50
36280;DHT22;22317;47.936;12.742;2022-11-15T17:04:00;7.80;41.80
36280;DHT22;22317;47.936;12.742;2022-11-15T17:06:41;7.70;42.00
36280;DHT22;22317;47.936;12.742;2022-11-15T17:09:21;7.60;42.40
36280;DHT22;22317;47.936;12.742;2022-11-15T17:11:50;7.40;42.10
36280;DHT22;22317;47.936;12.742;2022-11-15T17:14:16;7.70;42.30
36280;DHT22;22317;47.936;12.742;2022-11-15T17:16:42;7.20;43.10
36280;DHT22;22317;47.936;12.742;2022-11-15T17:19:13;7.10;43.40
36280;DHT22;22317;47.936;12.742;2022-11-15T17:21:40;7.00;43.40
36280;DHT22;22317;47.936;12.742;2022-11-15T17:24:06;7.00;43.80
36280;DHT22;22317;47.936;12.742;2022-11-15T17:26:32;7.00;44.10
36280;DHT22;22317;47.936;12.742;2022-11-15T17:28:58;6.90;44.30
36280;DHT22;22317;47.936;12.742;2022-11-15T17:31:26;6.60;44.00
36280;DHT22;22317;47.936;12.742;2022-11-15T17:33:52;6.70;44.50
36280;DHT22;22317;47.936;12.742;2022-11-15T17:36:18;6.60;44.80
36280;DHT22;22317;47.936;12.742;2022-11-15T17:38:44;6.50;44.50
36280;DHT22;22317;47.936;12.742;2022-11-15T17:41:15;6.50;45.30
36280;DHT22;22317;47.936;12.742;2022-11-15T17:43:41;6.40;45.20
36280;DHT22;22317;47.936;12.742;2022-11-15T17:46:11;6.40;45.80
36280;DHT22;22317;47.936;12.742;2022-11-15T17:48:37;6.30;46.00
36280;DHT22;22317;47.936;12.742;2022-11-15T17:51:05;6.30;45.60
36280;DHT22;22317;47.936;12.742;2022-11-15T17:53:35;6.30;46.00
36280;DHT22;22317;47.936;12.742;2022-11-15T17:56:10;6.30;46.30
36280;DHT22;22317;47.936;12.742;2022-11-15T17:58:36;6.20;47.00
36280;DHT22;22317;47.936;12.742;2022-11-15T18:01:12;6.20;46.40
36280;DHT22;22317;47.936;12.742;2022-11-15T18:03:40;6.10;46.20
36280;DHT22;22317;47.936;12.742;2022-11-15T18:06:07;6.20;46.60
36280;DHT22;22317;47.936;12.742;2022-11-15T18:08:37;6.00;46.60
36280;DHT22;22317;47.936;12.742;2022-11-15T18:11:04;5.90;46.90
36280;DHT22;22317;47.936;12.742;2022-11-15T18:13:30;5.80;46.80
36280;DHT22;22317;47.936;12.742;2022-11-15T18:15:56;5.80;47.10
36280;DHT22;22317;47.936;12.742;2022-11-15T18:18:28;5.80;47.80
36280;DHT22;22317;47.936;12.742;2022-11-15T18:21:07;5.70;47.40
36280;DHT22;22317;47.936;12.742;2022-11-15T18:26:01;3.90;46.00
36280;DHT22;22317;47.936;12.742;2022-11-15T18:28:39;5.50;47.60
36280;DHT22;22317;47.936;12.742;2022-11-15T18:31:15;4.70;47.60
36280;DHT22;22317;47.936;12.742;2022-11-15T18:33:42;5.40;47.50
36280;DHT22;22317;47.936;12.742;2022-11-15T18:36:19;5.40;47.90
36280;DHT22;22317;47.936;12.742;2022-11-15T18:38:46;5.40;48.00
36280;DHT22;22317;47.936;12.742;2022-11-15T18:41:14;5.40;48.00
36280;DHT22;22317;47.936;12.742;2022-11-15T18:43:42;5.30;48.20
36280;DHT22;22317;47.936;12.742;2022-11-15T18:46:12;5.40;48.40
36280;DHT22;22317;47.936;12.742;2022-11-15T18:48:39;5.30;48.70
36280;DHT22;22317;47.936;12.742;2022-11-15T18:51:07;5.30;48.70
36280;DHT22;22317;47.936;12.742;2022-11-15T18:53:33;5.00;49.40
36280;DHT22;22317;47.936;12.742;2022-11-15T18:56:01;5.20;48.70
36280;DHT22;22317;47.936;12.742;2022-11-15T18:58:31;5.10;48.70
36280;DHT22;22317;47.936;12.742;2022-11-15T19:03:33;5.10;48.70
36280;DHT22;22317;47.936;12.742;2022-11-15T19:06:04;5.00;49.00
36280;DHT22;22317;47.936;12.742;2022-11-15T19:08:32;5.00;49.20
36280;DHT22;22317;47.936;12.742;2022-11-15T19:11:03;4.90;49.30
36280;DHT22;22317;47.936;12.742;2022-11-15T19:13:29;4.90;49.30
36280;DHT22;22317;47.936;12.742;2022-11-15T19:15:58;4.90;49.60
36280;DHT22;22317;47.936;12.742;2022-11-15T19:18:25;4.90;49.70
36280;DHT22;22317;47.936;12.742;2022-11-15T19:20:52;4.90;49.80
36280;DHT22;22317;47.936;12.742;2022-11-15T19:23:19;4.80;49.70
36280;DHT22;22317;47.936;12.742;2022-11-15T19:25:56;4.80;50.10
36280;DHT22;22317;47.936;12.742;2022-11-15T19:28:24;4.90;50.30
36280;DHT22;22317;47.936;12.742;2022-11-15T19:30:50;4.80;50.20
36280;DHT22;22317;47.936;12.742;2022-11-15T19:33:16;4.70;52.20
36280;DHT22;22317;47.936;12.742;2022-11-15T19:35:42;4.90;50.50
36280;DHT22;22317;47.936;12.742;2022-11-15T19:38:09;5.00;50.50
36280;DHT22;22317;47.936;12.742;2022-11-15T19:40:35;4.90;50.50
36280;DHT22;22317;47.936;12.742;2022-11-15T19:43:01;4.90;50.30
36280;DHT22;22317;47.936;12.742;2022-11-15T19:45:26;4.60;52.40
36280;DHT22;22317;47.936;12.742;2022-11-15T19:47:52;4.90;50.60
36280;DHT22;22317;47.936;12.742;2022-11-15T19:50:18;4.80;49.90
36280;DHT22;22317;47.936;12.742;2022-11-15T19:52:44;4.80;50.10
36280;DHT22;22317;47.936;12.742;2022-11-15T19:55:10;4.80;50.60
36280;DHT22;22317;47.936;12.742;2022-11-15T19:57:36;4.70;50.60
36280;DHT22;22317;47.936;12.742;2022-11-15T20:00:02;4.70;50.00
36280;DHT22;22317;47.936;12.742;2022-11-15T20:02:30;4.60;50.30
36280;DHT22;22317;47.936;12.742;2022-11-15T20:04:56;4.60;50.80
36280;DHT22;22317;47.936;12.742;2022-11-15T20:07:22;4.60;51.00
36280;DHT22;22317;47.936;12.742;2022-11-15T20:09:47;4.60;51.00
36280;DHT22;22317;47.936;12.742;2022-11-15T20:12:13;4.60;51.10
36280;DHT22;22317;47.936;12.742;2022-11-15T20:14:39;4.60;51.20
36280;DHT22;22317;47.936;12.742;2022-11-15T20:17:05;4.50;50.70
36280;DHT22;22317;47.936;12.742;2022-11-15T20:19:30;4.60;51.90
36280;DHT22;22317;47.936;12.742;2022-11-15T20:21:56;4.50;50.90
36280;DHT22;22317;47.936;12.742;2022-11-15T20:24:22;4.50;51.00
36280;DHT22;22317;47.936;12.742;2022-11-15T20:26:48;4.50;51.40
36280;DHT22;22317;47.936;12.742;2022-11-15T20:29:13;4.50;51.00
36280;DHT22;22317;47.936;12.742;2022-11-15T20:31:39;4.60;51.10
36280;DHT22;22317;47.936;12.742;2022-11-15T20:34:05;4.50;51.60
36280;DHT22;22317;47.936;12.742;2022-11-15T20:36:31;4.60;51.30
36280;DHT22;22317;47.936;12.742;2022-11-15T20:38:57;4.50;51.80
36280;DHT22;22317;47.936;12.742;2022-11-15T20:41:23;4.50;51.50
36280;DHT22;22317;47.936;12.742;2022-11-15T20:43:49;4.50;51.90
36280;DHT22;22317;47.936;12.742;2022-11-15T20:46:15;4.60;52.00
36280;DHT22;22317;47.936;12.742;2022-11-15T20:48:41;4.60;52.10
36280;DHT22;22317;47.936;12.742;2022-11-15T20:51:12;4.60;52.10
36280;DHT22;22317;47.936;12.742;2022-11-15T20:53:40;4.50;51.70
36280;DHT22;22317;47.936;12.742;2022-11-15T20:56:11;4.50;52.10
36280;DHT22;22317;47.936;12.742;2022-11-15T20:58:37;4.50;51.80
36280;DHT22;22317;47.936;12.742;2022-11-15T21:01:07;4.70;52.40
36280;DHT22;22317;47.936;12.742;2022-11-15T21:03:34;4.50;51.90
36280;DHT22;22317;47.936;12.742;2022-11-15T21:06:00;4.50;52.30
36280;DHT22;22317;47.936;12.742;2022-11-15T21:08:25;4.50;52.30
36280;DHT22;22317;47.936;12.742;2022-11-15T21:10:52;4.40;52.30
36280;DHT22;22317;47.936;12.742;2022-11-15T21:13:37;4.40;52.00
36280;DHT22;22317;47.936;12.742;2022-11-15T21:16:03;4.40;51.90
36280;DHT22;22317;47.936;12.742;2022-11-15T21:18:30;4.40;52.40
36280;DHT22;22317;47.936;12.742;2022-11-15T21:21:03;4.40;53.10
36280;DHT22;22317;47.936;12.742;2022-11-15T21:23:30;4.30;52.20
36280;DHT22;22317;47.936;12.742;2022-11-15T21:25:56;4.40;52.60
36280;DHT22;22317;47.936;12.742;2022-11-15T21:28:22;0.80;50.30
36280;DHT22;22317;47.936;12.742;2022-11-15T21:30:58;4.30;52.60
36280;DHT22;22317;47.936;12.742;2022-11-15T21:33:25;4.30;52.40
36280;DHT22;22317;47.936;12.742;2022-11-15T21:35:55;4.30;52.70
36280;DHT22;22317;47.936;12.742;2022-11-15T21:38:22;4.30;52.80
36280;DHT22;22317;47.936;12.742;2022-11-15T21:40:49;4.40;52.90
36280;DHT22;22317;47.936;12.742;2022-11-15T21:43:16;4.30;52.70
36280;DHT22;22317;47.936;12.742;2022-11-15T21:45:42;4.40;53.10
36280;DHT22;22317;47.936;12.742;2022-11-15T21:48:07;4.40;53.10
36280;DHT22;22317;47.936;12.742;2022-11-15T21:50:33;4.40;53.20
36280;DHT22;22317;47.936;12.742;2022-11-15T21:52:59;4.40;53.10
36280;DHT22;22317;47.936;12.742;2022-11-15T21:55:25;4.40;54.10
36280;DHT22;22317;47.936;12.742;2022-11-15T21:57:51;4.40;53.50
36280;DHT22;22317;47.936;12.742;2022-11-15T22:00:17;4.50;53.20
36280;DHT22;22317;47.936;12.742;2022-11-15T22:03:01;4.50;53.30
36280;DHT22;22317;47.936;12.742;2022-11-15T22:05:27;4.50;53.70
36280;DHT22;22317;47.936;12.742;2022-11-15T22:07:53;4.50;53.70
36280;DHT22;22317;47.936;12.742;2022-11-15T22:10:18;4.50;53.90
36280;DHT22;22317;47.936;12.742;2022-11-15T22:12:44;4.50;53.60
36280;DHT22;22317;47.936;12.742;2022-11-15T22:15:10;4.60;54.00
36280;DHT22;22317;47.936;12.742;2022-11-15T22:17:35;4.60;54.00
36280;DHT22;22317;47.936;12.742;2022-11-15T22:20:20;4.50;54.00
36280;DHT22;22317;47.936;12.742;2022-11-15T22:22:47;4.60;53.90
36280;DHT22;22317;47.936;12.742;2022-11-15T22:25:13;4.60;54.30
36280;DHT22;22317;47.936;12.742;2022-11-15T22:27:38;4.60;54.40
36280;DHT22;22317;47.936;12.742;2022-11-15T22:30:05;4.60;54.40
36280;DHT22;22317;47.936;12.742;2022-11-15T22:32:30;4.60;54.00
36280;DHT22;22317;47.936;12.742;2022-11-15T22:34:56;4.60;54.40
36280;DHT22;22317;47.936;12.742;2022-11-15T22:37:22;4.60;54.50
36280;DHT22;22317;47.936;12.742;2022-11-15T22:39:48;4.50;54.00
36280;DHT22;22317;47.936;12.742;2022-11-15T22:42:14;4.60;54.40
36280;DHT22;22317;47.936;12.742;2022-11-15T22:44:40;4.60;54.80
36280;DHT22;22317;47.936;12.742;2022-11-15T22:47:06;4.60;54.80
36280;DHT22;22317;47.936;12.742;2022-11-15T22:49:32;4.60;54.80
36280;DHT22;22317;47.936;12.742;2022-11-15T22:51:57;4.50;54.50
36280;DHT22;22317;47.936;12.742;2022-11-15T22:54:23;4.60;55.10
36280;DHT22;22317;47.936;12.742;2022-11-15T22:56:49;4.60;55.20
36280;DHT22;22317;47.936;12.742;2022-11-15T22:59:15;4.60;55.20
36280;DHT22;22317;47.936;12.742;2022-11-15T23:01:41;4.70;54.70
36280;DHT22;22317;47.936;12.742;2022-11-15T23:04:07;4.60;55.10
36280;DHT22;22317;47.936;12.742;2022-11-15T23:06:33;4.50;55.10
36280;DHT22;22317;47.936;12.742;2022-11-15T23:08:59;4.50;55.20
36280;DHT22;22317;47.936;12.742;2022-11-15T23:11:25;4.60;55.10
36280;DHT22;22317;47.936;12.742;2022-11-15T23:14:09;4.50;55.50
36280;DHT22;22317;47.936;12.742;2022-11-15T23:16:35;4.50;55.50
36280;DHT22;22317;47.936;12.742;2022-11-15T23:19:04;4.50;55.60
36280;DHT22;22317;47.936;12.742;2022-11-15T23:21:35;4.40;55.10
36280;DHT22;22317;47.936;12.742;2022-11-15T23:24:20;4.50;55.70
36280;DHT22;22317;47.936;12.742;2022-11-15T23:26:47;4.50;55.70
36280;DHT22;22317;47.936;12.742;2022-11-15T23:29:18;4.50;55.70
36280;DHT22;22317;47.936;12.742;2022-11-15T23:31:44;4.40;55.20
36280;DHT22;22317;47.936;12.742;2022-11-15T23:34:30;4.40;55.70
36280;DHT22;22317;47.936;12.742;2022-11-15T23:36:57;4.40;55.80
36280;DHT22;22317;47.936;12.742;2022-11-15T23:39:23;4.30;55.40
36280;DHT22;22317;47.936;12.742;2022-11-15T23:41:49;4.30;55.40
36280;DHT22;22317;47.936;12.742;2022-11-15T23:44:14;4.40;56.00
36280;DHT22;22317;47.936;12.742;2022-11-15T23:46:40;4.40;56.10
36280;DHT22;22317;47.936;12.742;2022-11-15T23:49:06;4.40;56.10
36280;DHT22;22317;47.936;12.742;2022-11-15T23:51:32;4.30;55.60
36280;DHT22;22317;47.936;12.742;2022-11-15T23:53:58;4.30;56.10
36280;DHT22;22317;47.936;12.742;2022-11-15T23:56:24;4.30;56.10
36280;DHT22;22317;47.936;12.742;2022-11-15T23:58:50;4.30;56.20
